sensor_id;sensor_type;location;lat;lon;timestamp;P1;durP1;ratioP1;P2;durP2;ratioP2
4500;SDS011;2263;54.654;9.410;2023-02-22T00:02:27;90.27;;;36.20;;
4500;SDS011;2263;54.654;9.410;2023-02-22T00:05:12;91.67;;;35.03;;
4500;SDS011;2263;54.654;9.410;2023-02-22T00:07:59;97.23;;;37.00;;
4500;SDS011;2263;54.654;9.410;2023-02-22T00:10:43;111.80;;;34.63;;
4500;SDS011;2263;54.654;9.410;2023-02-22T00:13:28;86.57;;;31.73;;
4500;SDS011;2263;54.654;9.410;2023-02-22T00:16:17;91.60;;;34.40;;
4500;SDS011;2263;54.654;9.410;2023-02-22T00:19:03;94.00;;;36.57;;
4500;SDS011;2263;54.654;9.410;2023-02-22T00:21:51;92.20;;;35.00;;
4500;SDS011;2263;54.654;9.410;2023-02-22T00:24:36;73.00;;;31.53;;
4500;SDS011;2263;54.654;9.410;2023-02-22T00:27:20;89.07;;;34.37;;
4500;SDS011;2263;54.654;9.410;2023-02-22T00:30:05;90.27;;;34.77;;
4500;SDS011;2263;54.654;9.410;2023-02-22T00:32:52;92.37;;;31.80;;
4500;SDS011;2263;54.654;9.410;2023-02-22T00:35:38;91.40;;;33.53;;
4500;SDS011;2263;54.654;9.410;2023-02-22T00:38:23;81.07;;;31.10;;
4500;SDS011;2263;54.654;9.410;2023-02-22T00:41:08;79.97;;;32.77;;
4500;SDS011;2263;54.654;9.410;2023-02-22T00:43:53;85.63;;;31.17;;
4500;SDS011;2263;54.654;9.410;2023-02-22T00:46:37;73.87;;;30.03;;
4500;SDS011;2263;54.654;9.410;2023-02-22T00:49:22;70.20;;;30.50;;
4500;SDS011;2263;54.654;9.410;2023-02-22T00:52:06;81.73;;;30.80;;
4500;SDS011;2263;54.654;9.410;2023-02-22T00:54:52;64.20;;;26.47;;
4500;SDS011;2263;54.654;9.410;2023-02-22T00:57:38;73.40;;;28.57;;
4500;SDS011;2263;54.654;9.410;2023-02-22T01:00:24;60.30;;;26.50;;
4500;SDS011;2263;54.654;9.410;2023-02-22T01:03:30;59.47;;;26.53;;
4500;SDS011;2263;54.654;9.410;2023-02-22T01:06:14;59.17;;;24.30;;
4500;SDS011;2263;54.654;9.410;2023-02-22T01:08:59;55.90;;;23.37;;
4500;SDS011;2263;54.654;9.410;2023-02-22T01:11:51;52.27;;;22.83;;
4500;SDS011;2263;54.654;9.410;2023-02-22T01:14:39;54.90;;;23.50;;
4500;SDS011;2263;54.654;9.410;2023-02-22T01:17:24;52.43;;;21.20;;
4500;SDS011;2263;54.654;9.410;2023-02-22T01:20:09;54.93;;;22.10;;
4500;SDS011;2263;54.654;9.410;2023-02-22T01:22:58;40.33;;;18.90;;
4500;SDS011;2263;54.654;9.410;2023-02-22T01:25:44;40.83;;;18.73;;
4500;SDS011;2263;54.654;9.410;2023-02-22T01:28:28;40.83;;;19.10;;
4500;SDS011;2263;54.654;9.410;2023-02-22T01:31:13;34.37;;;18.30;;
4500;SDS011;2263;54.654;9.410;2023-02-22T01:33:57;39.33;;;17.30;;
4500;SDS011;2263;54.654;9.410;2023-02-22T01:36:42;41.83;;;18.70;;
4500;SDS011;2263;54.654;9.410;2023-02-22T01:39:27;37.23;;;18.20;;
4500;SDS011;2263;54.654;9.410;2023-02-22T01:42:11;31.63;;;16.40;;
4500;SDS011;2263;54.654;9.410;2023-02-22T01:48:19;29.43;;;14.97;;
4500;SDS011;2263;54.654;9.410;2023-02-22T01:51:12;33.83;;;15.10;;
4500;SDS011;2263;54.654;9.410;2023-02-22T01:54:03;27.27;;;14.87;;
4500;SDS011;2263;54.654;9.410;2023-02-22T01:57:03;35.50;;;13.80;;
4500;SDS011;2263;54.654;9.410;2023-02-22T01:59:58;27.57;;;14.87;;
4500;SDS011;2263;54.654;9.410;2023-02-22T02:02:57;31.53;;;13.60;;
4500;SDS011;2263;54.654;9.410;2023-02-22T02:05:45;26.57;;;13.30;;
4500;SDS011;2263;54.654;9.410;2023-02-22T02:11:32;30.37;;;12.50;;
4500;SDS011;2263;54.654;9.410;2023-02-22T02:14:16;26.77;;;13.90;;
4500;SDS011;2263;54.654;9.410;2023-02-22T02:17:01;22.93;;;12.60;;
4500;SDS011;2263;54.654;9.410;2023-02-22T02:31:40;33.57;;;10.30;;
4500;SDS011;2263;54.654;9.410;2023-02-22T02:41:05;24.07;;;8.80;;
4500;SDS011;2263;54.654;9.410;2023-02-22T02:47:00;29.33;;;7.60;;
4500;SDS011;2263;54.654;9.410;2023-02-22T02:49:48;21.93;;;8.50;;
4500;SDS011;2263;54.654;9.410;2023-02-22T02:52:40;27.73;;;8.10;;
4500;SDS011;2263;54.654;9.410;2023-02-22T02:55:28;14.63;;;7.20;;
4500;SDS011;2263;54.654;9.410;2023-02-22T02:58:18;26.53;;;7.10;;
4500;SDS011;2263;54.654;9.410;2023-02-22T03:01:03;17.73;;;6.70;;
4500;SDS011;2263;54.654;9.410;2023-02-22T03:16:43;15.03;;;7.30;;
4500;SDS011;2263;54.654;9.410;2023-02-22T03:22:25;17.70;;;6.67;;
4500;SDS011;2263;54.654;9.410;2023-02-22T03:25:23;13.23;;;6.03;;
4500;SDS011;2263;54.654;9.410;2023-02-22T03:28:17;19.07;;;6.07;;
4500;SDS011;2263;54.654;9.410;2023-02-22T03:31:06;9.80;;;5.83;;
4500;SDS011;2263;54.654;9.410;2023-02-22T03:33:59;12.80;;;6.07;;
4500;SDS011;2263;54.654;9.410;2023-02-22T03:36:50;11.93;;;6.80;;
4500;SDS011;2263;54.654;9.410;2023-02-22T03:39:39;12.30;;;6.17;;
4500;SDS011;2263;54.654;9.410;2023-02-22T03:42:30;13.47;;;6.77;;
4500;SDS011;2263;54.654;9.410;2023-02-22T03:45:19;11.97;;;6.40;;
4500;SDS011;2263;54.654;9.410;2023-02-22T03:48:50;12.73;;;6.90;;
4500;SDS011;2263;54.654;9.410;2023-02-22T03:51:15;18.00;;;7.20;;
4500;SDS011;2263;54.654;9.410;2023-02-22T03:54:01;19.93;;;7.50;;
4500;SDS011;2263;54.654;9.410;2023-02-22T03:57:19;16.03;;;6.47;;
4500;SDS011;2263;54.654;9.410;2023-02-22T04:00:00;18.50;;;6.93;;
4500;SDS011;2263;54.654;9.410;2023-02-22T04:02:45;19.20;;;7.63;;
4500;SDS011;2263;54.654;9.410;2023-02-22T04:05:30;20.23;;;7.70;;
4500;SDS011;2263;54.654;9.410;2023-02-22T04:08:15;12.57;;;6.57;;
4500;SDS011;2263;54.654;9.410;2023-02-22T04:11:00;15.10;;;6.63;;
4500;SDS011;2263;54.654;9.410;2023-02-22T04:13:44;18.83;;;7.20;;
4500;SDS011;2263;54.654;9.410;2023-02-22T04:16:29;13.90;;;7.63;;
4500;SDS011;2263;54.654;9.410;2023-02-22T04:19:13;17.33;;;6.83;;
4500;SDS011;2263;54.654;9.410;2023-02-22T04:21:57;13.83;;;6.40;;
4500;SDS011;2263;54.654;9.410;2023-02-22T04:24:42;19.13;;;7.70;;
4500;SDS011;2263;54.654;9.410;2023-02-22T04:27:26;14.57;;;7.70;;
4500;SDS011;2263;54.654;9.410;2023-02-22T04:30:11;19.50;;;7.87;;
4500;SDS011;2263;54.654;9.410;2023-02-22T04:32:56;16.20;;;7.30;;
4500;SDS011;2263;54.654;9.410;2023-02-22T04:35:40;10.87;;;6.97;;
4500;SDS011;2263;54.654;9.410;2023-02-22T04:38:25;15.80;;;8.20;;
4500;SDS011;2263;54.654;9.410;2023-02-22T04:41:10;29.80;;;9.23;;
4500;SDS011;2263;54.654;9.410;2023-02-22T04:43:55;14.83;;;7.70;;
4500;SDS011;2263;54.654;9.410;2023-02-22T04:46:39;20.43;;;7.40;;
4500;SDS011;2263;54.654;9.410;2023-02-22T04:49:24;19.40;;;9.60;;
4500;SDS011;2263;54.654;9.410;2023-02-22T04:52:09;18.17;;;8.97;;
4500;SDS011;2263;54.654;9.410;2023-02-22T04:54:53;26.27;;;9.57;;
4500;SDS011;2263;54.654;9.410;2023-02-22T04:57:37;85.20;;;36.03;;
4500;SDS011;2263;54.654;9.410;2023-02-22T05:00:22;74.37;;;34.80;;
4500;SDS011;2263;54.654;9.410;2023-02-22T05:03:06;76.50;;;39.00;;
4500;SDS011;2263;54.654;9.410;2023-02-22T05:05:51;79.73;;;37.90;;
4500;SDS011;2263;54.654;9.410;2023-02-22T05:08:36;76.77;;;38.57;;
4500;SDS011;2263;54.654;9.410;2023-02-22T05:11:20;67.43;;;32.93;;
4500;SDS011;2263;54.654;9.410;2023-02-22T05:14:05;71.73;;;36.23;;
4500;SDS011;2263;54.654;9.410;2023-02-22T05:16:56;59.60;;;29.90;;
4500;SDS011;2263;54.654;9.410;2023-02-22T05:19:41;57.90;;;30.90;;
4500;SDS011;2263;54.654;9.410;2023-02-22T05:22:25;61.13;;;28.73;;
4500;SDS011;2263;54.654;9.410;2023-02-22T05:25:10;54.80;;;28.80;;
4500;SDS011;2263;54.654;9.410;2023-02-22T05:27:59;49.70;;;25.10;;
4500;SDS011;2263;54.654;9.410;2023-02-22T05:30:46;47.37;;;23.57;;
4500;SDS011;2263;54.654;9.410;2023-02-22T05:33:31;42.90;;;21.97;;
4500;SDS011;2263;54.654;9.410;2023-02-22T05:36:16;45.13;;;24.30;;
4500;SDS011;2263;54.654;9.410;2023-02-22T05:39:00;45.53;;;23.20;;
4500;SDS011;2263;54.654;9.410;2023-02-22T05:41:44;33.90;;;20.37;;
4500;SDS011;2263;54.654;9.410;2023-02-22T05:44:29;42.77;;;21.33;;
4500;SDS011;2263;54.654;9.410;2023-02-22T05:47:13;40.30;;;21.03;;
4500;SDS011;2263;54.654;9.410;2023-02-22T05:49:57;39.77;;;19.80;;
4500;SDS011;2263;54.654;9.410;2023-02-22T05:52:42;39.23;;;17.63;;
4500;SDS011;2263;54.654;9.410;2023-02-22T05:55:26;40.43;;;20.30;;
4500;SDS011;2263;54.654;9.410;2023-02-22T05:58:11;28.93;;;16.33;;
4500;SDS011;2263;54.654;9.410;2023-02-22T06:00:55;34.33;;;16.50;;
4500;SDS011;2263;54.654;9.410;2023-02-22T06:03:40;31.23;;;16.97;;
4500;SDS011;2263;54.654;9.410;2023-02-22T06:06:25;30.67;;;16.57;;
4500;SDS011;2263;54.654;9.410;2023-02-22T06:09:09;26.13;;;15.40;;
4500;SDS011;2263;54.654;9.410;2023-02-22T06:11:54;29.40;;;14.67;;
4500;SDS011;2263;54.654;9.410;2023-02-22T06:14:39;23.37;;;14.40;;
4500;SDS011;2263;54.654;9.410;2023-02-22T06:17:28;27.23;;;14.70;;
4500;SDS011;2263;54.654;9.410;2023-02-22T06:20:15;24.67;;;13.30;;
4500;SDS011;2263;54.654;9.410;2023-02-22T06:23:00;21.77;;;13.17;;
4500;SDS011;2263;54.654;9.410;2023-02-22T06:25:45;22.13;;;14.10;;
4500;SDS011;2263;54.654;9.410;2023-02-22T06:28:29;24.73;;;13.00;;
4500;SDS011;2263;54.654;9.410;2023-02-22T06:31:14;23.43;;;13.40;;
4500;SDS011;2263;54.654;9.410;2023-02-22T06:33:58;23.40;;;13.10;;
4500;SDS011;2263;54.654;9.410;2023-02-22T06:36:43;24.87;;;12.80;;
4500;SDS011;2263;54.654;9.410;2023-02-22T06:39:27;21.57;;;13.40;;
4500;SDS011;2263;54.654;9.410;2023-02-22T06:42:12;19.90;;;14.13;;
4500;SDS011;2263;54.654;9.410;2023-02-22T06:44:56;27.90;;;14.33;;
4500;SDS011;2263;54.654;9.410;2023-02-22T06:47:41;25.73;;;13.60;;
4500;SDS011;2263;54.654;9.410;2023-02-22T06:50:26;24.13;;;13.60;;
4500;SDS011;2263;54.654;9.410;2023-02-22T06:53:15;24.23;;;13.20;;
4500;SDS011;2263;54.654;9.410;2023-02-22T06:56:00;19.07;;;12.23;;
4500;SDS011;2263;54.654;9.410;2023-02-22T06:58:45;20.37;;;12.70;;
4500;SDS011;2263;54.654;9.410;2023-02-22T07:01:29;21.33;;;11.57;;
4500;SDS011;2263;54.654;9.410;2023-02-22T07:04:14;23.23;;;13.40;;
4500;SDS011;2263;54.654;9.410;2023-02-22T07:06:59;19.47;;;10.50;;
4500;SDS011;2263;54.654;9.410;2023-02-22T07:09:45;20.70;;;11.80;;
4500;SDS011;2263;54.654;9.410;2023-02-22T07:12:30;21.30;;;12.63;;
4500;SDS011;2263;54.654;9.410;2023-02-22T07:15:16;19.40;;;10.70;;
4500;SDS011;2263;54.654;9.410;2023-02-22T07:18:02;19.17;;;10.90;;
4500;SDS011;2263;54.654;9.410;2023-02-22T07:20:47;14.23;;;9.80;;
4500;SDS011;2263;54.654;9.410;2023-02-22T07:23:32;14.60;;;9.60;;
4500;SDS011;2263;54.654;9.410;2023-02-22T07:26:17;19.43;;;10.23;;
4500;SDS011;2263;54.654;9.410;2023-02-22T07:29:01;19.10;;;10.77;;
4500;SDS011;2263;54.654;9.410;2023-02-22T07:31:46;16.77;;;10.50;;
4500;SDS011;2263;54.654;9.410;2023-02-22T07:34:30;20.10;;;11.10;;
4500;SDS011;2263;54.654;9.410;2023-02-22T07:37:15;22.10;;;10.17;;
4500;SDS011;2263;54.654;9.410;2023-02-22T07:40:00;18.60;;;11.00;;
4500;SDS011;2263;54.654;9.410;2023-02-22T07:45:48;20.23;;;10.53;;
4500;SDS011;2263;54.654;9.410;2023-02-22T07:48:34;20.30;;;10.30;;
4500;SDS011;2263;54.654;9.410;2023-02-22T07:51:18;20.87;;;10.13;;
4500;SDS011;2263;54.654;9.410;2023-02-22T07:54:03;18.10;;;9.60;;
4500;SDS011;2263;54.654;9.410;2023-02-22T07:56:48;25.73;;;11.50;;
4500;SDS011;2263;54.654;9.410;2023-02-22T07:59:32;18.10;;;10.10;;
4500;SDS011;2263;54.654;9.410;2023-02-22T08:02:18;21.73;;;10.87;;
4500;SDS011;2263;54.654;9.410;2023-02-22T08:05:04;11.50;;;9.40;;
4500;SDS011;2263;54.654;9.410;2023-02-22T08:07:49;19.33;;;10.27;;
4500;SDS011;2263;54.654;9.410;2023-02-22T08:10:34;12.97;;;8.90;;
4500;SDS011;2263;54.654;9.410;2023-02-22T08:13:19;17.73;;;9.60;;
4500;SDS011;2263;54.654;9.410;2023-02-22T08:16:05;17.90;;;8.80;;
4500;SDS011;2263;54.654;9.410;2023-02-22T08:18:49;19.70;;;10.03;;
4500;SDS011;2263;54.654;9.410;2023-02-22T08:21:34;17.33;;;8.63;;
4500;SDS011;2263;54.654;9.410;2023-02-22T08:24:21;16.37;;;10.10;;
4500;SDS011;2263;54.654;9.410;2023-02-22T08:27:06;12.67;;;8.33;;
4500;SDS011;2263;54.654;9.410;2023-02-22T08:29:51;12.00;;;8.47;;
4500;SDS011;2263;54.654;9.410;2023-02-22T08:32:36;12.57;;;7.30;;
4500;SDS011;2263;54.654;9.410;2023-02-22T08:35:24;16.37;;;7.90;;
4500;SDS011;2263;54.654;9.410;2023-02-22T08:41:08;9.57;;;7.33;;
4500;SDS011;2263;54.654;9.410;2023-02-22T08:43:53;13.17;;;8.13;;
4500;SDS011;2263;54.654;9.410;2023-02-22T08:46:37;17.43;;;7.33;;
4500;SDS011;2263;54.654;9.410;2023-02-22T08:49:22;20.40;;;8.23;;
4500;SDS011;2263;54.654;9.410;2023-02-22T08:52:07;10.10;;;7.20;;
4500;SDS011;2263;54.654;9.410;2023-02-22T08:54:52;19.83;;;6.70;;
4500;SDS011;2263;54.654;9.410;2023-02-22T08:57:37;23.27;;;7.10;;
4500;SDS011;2263;54.654;9.410;2023-02-22T09:00:21;15.73;;;7.07;;
4500;SDS011;2263;54.654;9.410;2023-02-22T09:03:09;16.67;;;6.93;;
4500;SDS011;2263;54.654;9.410;2023-02-22T09:05:56;16.73;;;6.87;;
4500;SDS011;2263;54.654;9.410;2023-02-22T09:08:41;15.30;;;6.13;;
4500;SDS011;2263;54.654;9.410;2023-02-22T09:11:26;10.43;;;6.37;;
4500;SDS011;2263;54.654;9.410;2023-02-22T09:14:10;14.80;;;5.33;;
4500;SDS011;2263;54.654;9.410;2023-02-22T09:16:57;9.27;;;5.33;;
4500;SDS011;2263;54.654;9.410;2023-02-22T09:19:41;12.17;;;5.07;;
4500;SDS011;2263;54.654;9.410;2023-02-22T09:22:25;10.47;;;4.30;;
4500;SDS011;2263;54.654;9.410;2023-02-22T09:25:10;13.70;;;5.10;;
4500;SDS011;2263;54.654;9.410;2023-02-22T09:27:55;18.50;;;5.90;;
4500;SDS011;2263;54.654;9.410;2023-02-22T09:30:40;7.43;;;4.80;;
4500;SDS011;2263;54.654;9.410;2023-02-22T09:33:25;12.77;;;5.03;;
4500;SDS011;2263;54.654;9.410;2023-02-22T09:36:10;11.80;;;4.27;;
4500;SDS011;2263;54.654;9.410;2023-02-22T09:38:54;7.73;;;3.83;;
4500;SDS011;2263;54.654;9.410;2023-02-22T09:41:54;14.70;;;4.93;;
4500;SDS011;2263;54.654;9.410;2023-02-22T09:47:43;9.20;;;4.10;;
4500;SDS011;2263;54.654;9.410;2023-02-22T09:50:33;8.10;;;4.30;;
4500;SDS011;2263;54.654;9.410;2023-02-22T09:53:26;9.40;;;5.50;;
4500;SDS011;2263;54.654;9.410;2023-02-22T09:56:18;6.80;;;3.50;;
4500;SDS011;2263;54.654;9.410;2023-02-22T09:59:04;13.43;;;4.90;;
4500;SDS011;2263;54.654;9.410;2023-02-22T10:01:59;16.90;;;4.20;;
4500;SDS011;2263;54.654;9.410;2023-02-22T10:05:12;21.37;;;5.20;;
4500;SDS011;2263;54.654;9.410;2023-02-22T10:08:01;12.10;;;4.47;;
4500;SDS011;2263;54.654;9.410;2023-02-22T10:10:51;20.17;;;5.97;;
4500;SDS011;2263;54.654;9.410;2023-02-22T10:14:21;8.70;;;4.57;;
4500;SDS011;2263;54.654;9.410;2023-02-22T10:17:41;12.93;;;3.80;;
4500;SDS011;2263;54.654;9.410;2023-02-22T10:23:35;15.50;;;3.93;;
4500;SDS011;2263;54.654;9.410;2023-02-22T10:26:27;11.73;;;4.40;;
4500;SDS011;2263;54.654;9.410;2023-02-22T10:29:19;12.67;;;5.00;;
4500;SDS011;2263;54.654;9.410;2023-02-22T10:32:16;13.67;;;4.93;;
4500;SDS011;2263;54.654;9.410;2023-02-22T10:35:05;13.57;;;4.50;;
4500;SDS011;2263;54.654;9.410;2023-02-22T10:38:20;11.67;;;5.93;;
4500;SDS011;2263;54.654;9.410;2023-02-22T10:43:51;8.83;;;4.03;;
4500;SDS011;2263;54.654;9.410;2023-02-22T10:46:35;7.70;;;5.23;;
4500;SDS011;2263;54.654;9.410;2023-02-22T10:49:22;7.37;;;4.93;;
4500;SDS011;2263;54.654;9.410;2023-02-22T10:52:27;9.73;;;5.47;;
4500;SDS011;2263;54.654;9.410;2023-02-22T10:55:16;18.20;;;6.13;;
4500;SDS011;2263;54.654;9.410;2023-02-22T10:58:02;9.90;;;5.27;;
4500;SDS011;2263;54.654;9.410;2023-02-22T11:00:50;9.83;;;5.80;;
4500;SDS011;2263;54.654;9.410;2023-02-22T11:03:34;18.27;;;6.90;;
4500;SDS011;2263;54.654;9.410;2023-02-22T11:06:19;13.63;;;5.40;;
4500;SDS011;2263;54.654;9.410;2023-02-22T11:12:07;10.37;;;6.00;;
4500;SDS011;2263;54.654;9.410;2023-02-22T11:18:02;10.60;;;5.00;;
4500;SDS011;2263;54.654;9.410;2023-02-22T11:20:46;11.47;;;5.63;;
4500;SDS011;2263;54.654;9.410;2023-02-22T11:23:31;5.77;;;4.77;;
4500;SDS011;2263;54.654;9.410;2023-02-22T11:26:17;9.50;;;5.17;;
4500;SDS011;2263;54.654;9.410;2023-02-22T11:29:08;15.67;;;6.10;;
4500;SDS011;2263;54.654;9.410;2023-02-22T11:31:55;8.50;;;5.37;;
4500;SDS011;2263;54.654;9.410;2023-02-22T11:34:40;8.10;;;5.63;;
4500;SDS011;2263;54.654;9.410;2023-02-22T11:37:31;9.30;;;5.37;;
4500;SDS011;2263;54.654;9.410;2023-02-22T11:40:20;12.53;;;5.97;;
4500;SDS011;2263;54.654;9.410;2023-02-22T11:43:06;15.13;;;5.30;;
4500;SDS011;2263;54.654;9.410;2023-02-22T11:45:59;8.53;;;5.67;;
4500;SDS011;2263;54.654;9.410;2023-02-22T11:48:59;13.70;;;5.83;;
4500;SDS011;2263;54.654;9.410;2023-02-22T12:01:25;9.23;;;5.40;;
4500;SDS011;2263;54.654;9.410;2023-02-22T12:19:35;7.60;;;6.27;;
4500;SDS011;2263;54.654;9.410;2023-02-22T12:22:35;11.70;;;3.87;;
4500;SDS011;2263;54.654;9.410;2023-02-22T12:25:34;6.00;;;4.43;;
4500;SDS011;2263;54.654;9.410;2023-02-22T12:28:22;14.63;;;5.63;;
4500;SDS011;2263;54.654;9.410;2023-02-22T12:34:36;12.93;;;5.03;;
4500;SDS011;2263;54.654;9.410;2023-02-22T12:37:26;11.67;;;5.60;;
4500;SDS011;2263;54.654;9.410;2023-02-22T12:43:33;11.70;;;6.17;;
4500;SDS011;2263;54.654;9.410;2023-02-22T12:57:55;13.70;;;5.33;;
4500;SDS011;2263;54.654;9.410;2023-02-22T13:00:43;11.60;;;5.20;;
4500;SDS011;2263;54.654;9.410;2023-02-22T13:03:37;5.97;;;4.70;;
4500;SDS011;2263;54.654;9.410;2023-02-22T13:15:29;8.03;;;5.07;;
4500;SDS011;2263;54.654;9.410;2023-02-22T13:30:43;11.00;;;4.97;;
4500;SDS011;2263;54.654;9.410;2023-02-22T13:42:43;9.83;;;6.23;;
4500;SDS011;2263;54.654;9.410;2023-02-22T13:54:39;7.20;;;6.10;;
4500;SDS011;2263;54.654;9.410;2023-02-22T13:57:43;13.53;;;6.87;;
4500;SDS011;2263;54.654;9.410;2023-02-22T14:00:39;14.03;;;7.30;;
4500;SDS011;2263;54.654;9.410;2023-02-22T14:03:35;14.80;;;6.70;;
4500;SDS011;2263;54.654;9.410;2023-02-22T14:06:44;11.67;;;7.30;;
4500;SDS011;2263;54.654;9.410;2023-02-22T14:10:01;23.63;;;7.13;;
4500;SDS011;2263;54.654;9.410;2023-02-22T14:12:46;9.90;;;7.03;;
4500;SDS011;2263;54.654;9.410;2023-02-22T14:15:31;11.90;;;7.93;;
4500;SDS011;2263;54.654;9.410;2023-02-22T14:18:16;15.63;;;7.67;;
4500;SDS011;2263;54.654;9.410;2023-02-22T14:21:08;15.53;;;7.27;;
4500;SDS011;2263;54.654;9.410;2023-02-22T14:23:53;14.47;;;8.90;;
4500;SDS011;2263;54.654;9.410;2023-02-22T14:26:39;15.03;;;7.70;;
4500;SDS011;2263;54.654;9.410;2023-02-22T14:29:36;11.90;;;7.80;;
4500;SDS011;2263;54.654;9.410;2023-02-22T14:32:32;15.90;;;8.60;;
4500;SDS011;2263;54.654;9.410;2023-02-22T14:35:17;18.63;;;8.40;;
4500;SDS011;2263;54.654;9.410;2023-02-22T14:38:05;18.23;;;8.70;;
4500;SDS011;2263;54.654;9.410;2023-02-22T14:41:01;10.17;;;6.80;;
4500;SDS011;2263;54.654;9.410;2023-02-22T14:43:46;13.30;;;8.80;;
4500;SDS011;2263;54.654;9.410;2023-02-22T14:46:33;13.13;;;7.93;;
4500;SDS011;2263;54.654;9.410;2023-02-22T14:49:23;11.10;;;7.80;;
4500;SDS011;2263;54.654;9.410;2023-02-22T14:52:46;18.37;;;9.20;;
4500;SDS011;2263;54.654;9.410;2023-02-22T14:55:25;14.60;;;7.97;;
4500;SDS011;2263;54.654;9.410;2023-02-22T14:58:14;16.83;;;8.67;;
4500;SDS011;2263;54.654;9.410;2023-02-22T15:13:03;8.73;;;7.70;;
4500;SDS011;2263;54.654;9.410;2023-02-22T15:15:57;14.50;;;8.17;;
4500;SDS011;2263;54.654;9.410;2023-02-22T15:18:44;11.90;;;7.63;;
4500;SDS011;2263;54.654;9.410;2023-02-22T15:21:31;14.03;;;8.67;;
4500;SDS011;2263;54.654;9.410;2023-02-22T15:24:18;12.27;;;7.13;;
4500;SDS011;2263;54.654;9.410;2023-02-22T15:27:14;10.53;;;7.57;;
4500;SDS011;2263;54.654;9.410;2023-02-22T15:30:06;15.57;;;7.63;;
4500;SDS011;2263;54.654;9.410;2023-02-22T15:33:10;14.60;;;7.90;;
4500;SDS011;2263;54.654;9.410;2023-02-22T15:35:57;9.93;;;7.20;;
4500;SDS011;2263;54.654;9.410;2023-02-22T15:38:46;12.10;;;7.60;;
4500;SDS011;2263;54.654;9.410;2023-02-22T15:41:34;15.90;;;8.40;;
4500;SDS011;2263;54.654;9.410;2023-02-22T15:44:19;9.37;;;7.87;;
4500;SDS011;2263;54.654;9.410;2023-02-22T15:47:03;17.80;;;9.90;;
4500;SDS011;2263;54.654;9.410;2023-02-22T15:56:13;14.53;;;8.87;;
4500;SDS011;2263;54.654;9.410;2023-02-22T15:59:14;13.40;;;7.50;;
4500;SDS011;2263;54.654;9.410;2023-02-22T16:02:01;13.67;;;9.33;;
4500;SDS011;2263;54.654;9.410;2023-02-22T16:04:45;19.37;;;8.37;;
4500;SDS011;2263;54.654;9.410;2023-02-22T16:07:29;11.57;;;7.90;;
4500;SDS011;2263;54.654;9.410;2023-02-22T16:10:35;16.10;;;9.80;;
4500;SDS011;2263;54.654;9.410;2023-02-22T16:13:23;14.77;;;7.87;;
4500;SDS011;2263;54.654;9.410;2023-02-22T16:22:27;15.73;;;6.50;;
4500;SDS011;2263;54.654;9.410;2023-02-22T16:28:23;12.37;;;5.87;;
4500;SDS011;2263;54.654;9.410;2023-02-22T16:31:09;15.83;;;6.20;;
4500;SDS011;2263;54.654;9.410;2023-02-22T16:33:53;11.80;;;5.80;;
4500;SDS011;2263;54.654;9.410;2023-02-22T16:36:42;14.70;;;6.70;;
4500;SDS011;2263;54.654;9.410;2023-02-22T16:39:28;9.73;;;6.03;;
4500;SDS011;2263;54.654;9.410;2023-02-22T16:42:14;22.33;;;6.57;;
4500;SDS011;2263;54.654;9.410;2023-02-22T16:45:03;8.70;;;5.70;;
4500;SDS011;2263;54.654;9.410;2023-02-22T16:47:47;6.53;;;5.47;;
4500;SDS011;2263;54.654;9.410;2023-02-22T16:50:36;8.00;;;5.37;;
4500;SDS011;2263;54.654;9.410;2023-02-22T16:53:21;11.20;;;5.67;;
4500;SDS011;2263;54.654;9.410;2023-02-22T16:56:08;19.63;;;6.83;;
4500;SDS011;2263;54.654;9.410;2023-02-22T16:58:54;8.10;;;6.20;;
4500;SDS011;2263;54.654;9.410;2023-02-22T17:01:40;10.00;;;6.03;;
4500;SDS011;2263;54.654;9.410;2023-02-22T17:04:25;14.93;;;5.73;;
4500;SDS011;2263;54.654;9.410;2023-02-22T17:07:11;13.17;;;5.97;;
4500;SDS011;2263;54.654;9.410;2023-02-22T17:09:56;12.30;;;5.50;;
4500;SDS011;2263;54.654;9.410;2023-02-22T17:12:44;16.30;;;4.90;;
4500;SDS011;2263;54.654;9.410;2023-02-22T17:15:31;11.23;;;5.33;;
4500;SDS011;2263;54.654;9.410;2023-02-22T17:18:18;8.87;;;5.63;;
4500;SDS011;2263;54.654;9.410;2023-02-22T17:21:06;10.70;;;4.90;;
4500;SDS011;2263;54.654;9.410;2023-02-22T17:23:53;12.80;;;5.43;;
4500;SDS011;2263;54.654;9.410;2023-02-22T17:26:37;15.40;;;4.93;;
4500;SDS011;2263;54.654;9.410;2023-02-22T17:29:22;12.30;;;5.57;;
4500;SDS011;2263;54.654;9.410;2023-02-22T17:32:07;15.07;;;5.60;;
4500;SDS011;2263;54.654;9.410;2023-02-22T17:34:52;10.50;;;6.13;;
4500;SDS011;2263;54.654;9.410;2023-02-22T17:37:36;17.67;;;5.53;;
4500;SDS011;2263;54.654;9.410;2023-02-22T17:40:21;26.03;;;7.07;;
4500;SDS011;2263;54.654;9.410;2023-02-22T17:43:06;14.30;;;6.50;;
4500;SDS011;2263;54.654;9.410;2023-02-22T17:45:51;12.60;;;6.97;;
4500;SDS011;2263;54.654;9.410;2023-02-22T17:48:36;12.80;;;6.07;;
4500;SDS011;2263;54.654;9.410;2023-02-22T17:51:22;11.37;;;5.60;;
4500;SDS011;2263;54.654;9.410;2023-02-22T17:54:07;28.67;;;9.33;;
4500;SDS011;2263;54.654;9.410;2023-02-22T17:56:52;14.77;;;5.80;;
4500;SDS011;2263;54.654;9.410;2023-02-22T17:59:36;12.13;;;5.30;;
4500;SDS011;2263;54.654;9.410;2023-02-22T18:02:20;19.67;;;6.10;;
4500;SDS011;2263;54.654;9.410;2023-02-22T18:05:05;10.43;;;5.47;;
4500;SDS011;2263;54.654;9.410;2023-02-22T18:07:50;11.07;;;6.23;;
4500;SDS011;2263;54.654;9.410;2023-02-22T18:10:35;18.33;;;7.00;;
4500;SDS011;2263;54.654;9.410;2023-02-22T18:13:20;6.90;;;5.20;;
4500;SDS011;2263;54.654;9.410;2023-02-22T18:16:08;14.17;;;5.80;;
4500;SDS011;2263;54.654;9.410;2023-02-22T18:18:53;14.77;;;4.80;;
4500;SDS011;2263;54.654;9.410;2023-02-22T18:21:39;13.83;;;7.23;;
4500;SDS011;2263;54.654;9.410;2023-02-22T18:24:23;18.37;;;6.50;;
4500;SDS011;2263;54.654;9.410;2023-02-22T18:27:08;18.63;;;7.20;;
4500;SDS011;2263;54.654;9.410;2023-02-22T18:29:54;17.47;;;6.40;;
4500;SDS011;2263;54.654;9.410;2023-02-22T18:32:39;22.27;;;5.97;;
4500;SDS011;2263;54.654;9.410;2023-02-22T18:35:24;8.77;;;4.73;;
4500;SDS011;2263;54.654;9.410;2023-02-22T18:38:09;7.50;;;4.80;;
4500;SDS011;2263;54.654;9.410;2023-02-22T18:41:00;11.23;;;5.00;;
4500;SDS011;2263;54.654;9.410;2023-02-22T18:43:46;10.03;;;4.80;;
4500;SDS011;2263;54.654;9.410;2023-02-22T18:46:30;10.03;;;4.90;;
4500;SDS011;2263;54.654;9.410;2023-02-22T18:49:15;12.87;;;4.47;;
4500;SDS011;2263;54.654;9.410;2023-02-22T18:51:59;15.60;;;6.20;;
4500;SDS011;2263;54.654;9.410;2023-02-22T18:54:44;11.13;;;5.83;;
4500;SDS011;2263;54.654;9.410;2023-02-22T18:57:28;13.13;;;5.60;;
4500;SDS011;2263;54.654;9.410;2023-02-22T19:00:14;13.67;;;5.20;;
4500;SDS011;2263;54.654;9.410;2023-02-22T19:03:00;18.53;;;5.70;;
4500;SDS011;2263;54.654;9.410;2023-02-22T19:05:44;14.00;;;5.30;;
4500;SDS011;2263;54.654;9.410;2023-02-22T19:08:33;14.80;;;4.87;;
4500;SDS011;2263;54.654;9.410;2023-02-22T19:11:25;14.63;;;5.90;;
4500;SDS011;2263;54.654;9.410;2023-02-22T19:14:10;7.60;;;5.17;;
4500;SDS011;2263;54.654;9.410;2023-02-22T19:16:55;8.27;;;4.83;;
4500;SDS011;2263;54.654;9.410;2023-02-22T19:19:44;8.50;;;5.70;;
4500;SDS011;2263;54.654;9.410;2023-02-22T19:22:28;8.87;;;5.00;;
4500;SDS011;2263;54.654;9.410;2023-02-22T19:25:15;18.27;;;6.07;;
4500;SDS011;2263;54.654;9.410;2023-02-22T19:27:59;15.60;;;5.90;;
4500;SDS011;2263;54.654;9.410;2023-02-22T19:30:44;17.20;;;5.50;;
4500;SDS011;2263;54.654;9.410;2023-02-22T19:33:28;16.43;;;5.63;;
4500;SDS011;2263;54.654;9.410;2023-02-22T19:36:13;10.60;;;5.30;;
4500;SDS011;2263;54.654;9.410;2023-02-22T19:38:58;17.33;;;5.57;;
4500;SDS011;2263;54.654;9.410;2023-02-22T19:41:45;11.53;;;5.43;;
4500;SDS011;2263;54.654;9.410;2023-02-22T19:44:30;12.67;;;6.93;;
4500;SDS011;2263;54.654;9.410;2023-02-22T19:47:15;15.27;;;6.70;;
4500;SDS011;2263;54.654;9.410;2023-02-22T19:50:00;10.43;;;4.90;;
4500;SDS011;2263;54.654;9.410;2023-02-22T19:52:44;15.23;;;6.13;;
4500;SDS011;2263;54.654;9.410;2023-02-22T19:55:29;13.37;;;5.63;;
4500;SDS011;2263;54.654;9.410;2023-02-22T19:58:15;11.13;;;5.10;;